This is the latest recevied weather packets stored in our database for station/object W7BL. If no packets are shown the sender has not sent any weather packets the latest 10 day(s).
| Time | Temp. | Humidity | Pressure | Rain* | Wind** | Luminosity | Snow |
|---|---|---|---|---|---|---|---|
| 1777537274 | 7.78° C | 68% | - | 0 mm | - | - | - |
| 1777536969 | 7.78° C | 67% | - | 0 mm | - | - | - |
| 1777536668 | 7.78° C | 68% | - | 0 mm | - | - | - |
| 1777536364 | 7.78° C | 67% | - | 0 mm | - | - | - |
| 1777536061 | 8.33° C | 66% | - | 0 mm | - | - | - |
| 1777535756 | 8.33° C | 66% | - | 0 mm | - | - | - |
| 1777535454 | 8.89° C | 64% | - | 0 mm | - | - | - |
| 1777535150 | 8.89° C | 63% | - | 0 mm | - | - | - |
| 1777534847 | 8.33° C | 65% | - | 0 mm | - | - | - |
| 1777534544 | 8.33° C | 65% | - | 0 mm | - | - | - |
| 1777534241 | 9.44° C | 62% | - | 0 mm | - | - | - |
| 1777533939 | 8.33° C | 65% | - | 0 mm | - | - | - |
| 1777533636 | 8.33° C | 65% | - | 0 mm | - | - | - |
| 1777533332 | 8.33° C | 66% | - | 0 mm | - | - | - |
| 1777533028 | 8.33° C | 65% | - | 0 mm | - | - | - |
| 1777532726 | 8.89° C | 63% | - | 0 mm | - | - | - |
| 1777532422 | 8.89° C | 62% | - | 0 mm | - | - | - |
| 1777532119 | 9.44° C | 61% | - | 0 mm | - | - | - |
| 1777531815 | 10.56° C | 59% | - | 0 mm | - | - | - |
| 1777531510 | 10° C | 61% | - | 0 mm | - | - | - |
| 1777531209 | 8.89° C | 63% | - | 0 mm | - | - | - |
| 1777530906 | 9.44° C | 62% | - | 0 mm | - | - | - |
| 1777530603 | 9.44° C | 63% | - | 0 mm | - | - | - |
| 1777530301 | 9.44° C | 62% | - | 0 mm | - | - | - |
| 1777529996 | 10° C | 62% | - | 0 mm | - | - | - |
* Rain latest hour (hover to see other rain measurements)
** Current wind speed in m/s (hover to see current wind gust speed)